createdAt,value
2023-02-27T00:00:37.220Z,99.90
2023-02-27T00:03:05.310Z,99.90
2023-02-27T00:05:34.578Z,99.90
2023-02-27T00:08:02.530Z,99.90
2023-02-27T00:10:30.447Z,99.90
2023-02-27T00:12:58.313Z,99.90
2023-02-27T00:15:26.384Z,99.90
2023-02-27T00:17:54.344Z,99.90
2023-02-27T00:20:22.392Z,99.90
2023-02-27T00:22:51.907Z,99.90
2023-02-27T00:25:19.866Z,99.90
2023-02-27T00:27:47.748Z,99.90
2023-02-27T00:30:16.592Z,99.90
2023-02-27T00:32:44.787Z,99.90
2023-02-27T00:35:13.594Z,99.90
2023-02-27T00:37:41.717Z,99.90
2023-02-27T00:40:12.690Z,99.90
2023-02-27T00:42:41.010Z,99.90
2023-02-27T00:45:09.996Z,99.90
2023-02-27T00:47:37.851Z,99.90
2023-02-27T00:50:06.879Z,99.90
2023-02-27T00:52:34.765Z,99.90
2023-02-27T00:55:02.636Z,99.90
2023-02-27T00:57:31.924Z,99.90
2023-02-27T00:59:59.792Z,99.90
2023-02-27T01:02:28.201Z,99.90
2023-02-27T01:04:56.082Z,99.90
2023-02-27T01:07:24.003Z,99.90
2023-02-27T01:09:51.903Z,99.90
2023-02-27T01:12:19.806Z,99.90
2023-02-27T01:14:49.346Z,99.90
2023-02-27T01:17:17.268Z,99.90
2023-02-27T01:19:45.186Z,99.90
2023-02-27T01:22:13.597Z,99.90
2023-02-27T01:24:41.643Z,99.90
2023-02-27T01:27:09.568Z,99.90
2023-02-27T01:29:37.509Z,99.90
2023-02-27T01:32:06.780Z,99.90
2023-02-27T01:34:34.901Z,99.90
2023-02-27T01:37:02.763Z,99.90
2023-02-27T01:39:32.816Z,99.90
2023-02-27T01:42:01.037Z,99.90
2023-02-27T01:44:30.294Z,99.90
2023-02-27T01:46:58.793Z,99.90
2023-02-27T01:49:32.346Z,99.90
2023-02-27T01:52:06.135Z,99.90
2023-02-27T01:54:39.921Z,99.90
2023-02-27T01:57:08.899Z,99.90
2023-02-27T01:59:40.497Z,99.90
2023-02-27T02:02:15.675Z,99.90
2023-02-27T02:04:46.312Z,99.90
2023-02-27T02:07:18.607Z,99.90
2023-02-27T02:09:49.953Z,99.90
2023-02-27T02:12:21.047Z,99.90
2023-02-27T02:14:48.879Z,99.90
2023-02-27T02:17:23.308Z,99.90
2023-02-27T02:20:20.855Z,99.90
2023-02-27T02:23:19.222Z,99.90
2023-02-27T02:26:14.996Z,99.90
2023-02-27T02:29:12.203Z,99.90
2023-02-27T02:32:24.345Z,99.90
2023-02-27T02:35:22.914Z,99.90
2023-02-27T02:38:29.700Z,99.90
2023-02-27T02:41:03.477Z,99.90
2023-02-27T02:43:38.073Z,99.90
2023-02-27T02:46:14.156Z,99.90
2023-02-27T02:48:48.454Z,99.90
2023-02-27T02:51:23.498Z,99.90
2023-02-27T02:54:00.915Z,99.90
2023-02-27T02:56:36.597Z,99.90
2023-02-27T02:59:10.325Z,99.90
2023-02-27T03:01:42.636Z,99.90
2023-02-27T03:04:16.797Z,99.90
2023-02-27T03:06:50.790Z,99.90
2023-02-27T03:09:25.543Z,99.90
2023-02-27T03:11:58.071Z,99.90
2023-02-27T03:14:34.236Z,99.90
2023-02-27T03:17:07.841Z,99.90
2023-02-27T03:19:41.343Z,99.90
2023-02-27T03:22:11.526Z,99.90
2023-02-27T03:24:42.936Z,99.90
2023-02-27T03:27:13.499Z,99.90
2023-02-27T03:29:48.584Z,99.90
2023-02-27T03:32:21.652Z,99.90
2023-02-27T03:34:50.254Z,99.90
2023-02-27T03:37:29.013Z,99.90
2023-02-27T03:40:06.422Z,99.90
2023-02-27T03:42:40.599Z,99.90
2023-02-27T03:45:17.635Z,99.90
2023-02-27T03:47:45.688Z,99.90
2023-02-27T03:50:14.060Z,99.90
2023-02-27T03:52:42.190Z,99.90
2023-02-27T03:55:14.728Z,99.90
2023-02-27T03:57:45.885Z,99.90
2023-02-27T04:00:16.781Z,99.90
2023-02-27T04:02:46.833Z,99.90
2023-02-27T04:05:14.825Z,99.90
2023-02-27T04:07:52.981Z,99.90
2023-02-27T04:10:33.681Z,99.90
2023-02-27T04:13:19.678Z,99.90
2023-02-27T04:16:11.949Z,99.90
2023-02-27T04:18:56.955Z,99.90
2023-02-27T04:21:32.117Z,99.90
2023-02-27T04:24:13.445Z,99.90
2023-02-27T04:26:46.840Z,99.90
2023-02-27T04:29:19.708Z,99.90
2023-02-27T04:31:55.747Z,99.90
2023-02-27T04:34:30.171Z,99.90
2023-02-27T04:37:01.348Z,99.90
2023-02-27T04:39:33.441Z,99.90
2023-02-27T04:42:04.072Z,99.90
2023-02-27T04:44:37.101Z,99.90
2023-02-27T04:47:07.794Z,99.90
2023-02-27T04:49:41.128Z,99.90
2023-02-27T04:52:13.286Z,99.90
2023-02-27T04:54:44.504Z,99.90
2023-02-27T04:57:19.388Z,99.90
2023-02-27T04:59:52.310Z,99.90
2023-02-27T05:02:25.267Z,99.90
2023-02-27T05:04:59.637Z,99.90
2023-02-27T05:07:32.235Z,99.90
2023-02-27T05:10:04.120Z,99.90
2023-02-27T05:12:39.766Z,99.90
2023-02-27T05:15:13.797Z,99.90
2023-02-27T05:17:47.705Z,99.90
2023-02-27T05:20:17.824Z,99.90
2023-02-27T05:22:48.960Z,99.90
2023-02-27T05:25:24.673Z,99.90
2023-02-27T05:27:57.541Z,99.90
2023-02-27T05:30:29.979Z,99.90
2023-02-27T05:33:02.863Z,99.90
2023-02-27T05:35:35.096Z,99.90
2023-02-27T05:38:08.642Z,99.90
2023-02-27T05:40:40.499Z,99.90
2023-02-27T05:43:13.732Z,99.90
2023-02-27T05:45:47.801Z,99.90
2023-02-27T05:48:19.850Z,99.90
2023-02-27T05:50:51.109Z,99.90
2023-02-27T05:53:22.050Z,99.90
2023-02-27T05:55:52.173Z,99.90
2023-02-27T05:58:24.898Z,99.90
2023-02-27T06:00:58.487Z,99.90
2023-02-27T06:03:27.008Z,99.90
2023-02-27T06:05:55.588Z,99.90
2023-02-27T06:08:25.234Z,99.90
2023-02-27T06:10:55.073Z,99.90
2023-02-27T06:13:23.329Z,99.90
2023-02-27T06:15:51.438Z,99.90
2023-02-27T06:18:21.596Z,99.90
2023-02-27T06:20:49.708Z,99.90
2023-02-27T06:23:18.169Z,99.90
2023-02-27T06:25:46.159Z,99.90
2023-02-27T06:28:14.025Z,99.90
2023-02-27T06:30:42.222Z,99.90
2023-02-27T06:33:10.509Z,99.90
2023-02-27T06:35:39.792Z,99.90
2023-02-27T06:38:07.681Z,99.90
2023-02-27T06:40:35.640Z,99.90
2023-02-27T06:43:03.483Z,99.90
2023-02-27T06:45:31.423Z,99.90
2023-02-27T06:47:59.339Z,99.90
2023-02-27T06:50:27.448Z,99.90
2023-02-27T06:52:56.683Z,99.90
2023-02-27T06:55:25.744Z,99.90
2023-02-27T06:57:53.645Z,99.90
2023-02-27T07:00:22.317Z,99.90
2023-02-27T07:02:50.426Z,99.90
2023-02-27T07:05:18.956Z,99.90
2023-02-27T07:07:46.900Z,99.90
2023-02-27T07:10:16.507Z,99.90
2023-02-27T07:12:44.389Z,99.90
2023-02-27T07:15:12.791Z,99.90
2023-02-27T07:17:40.821Z,99.90
2023-02-27T07:20:11.141Z,99.90
2023-02-27T07:22:39.759Z,99.90
2023-02-27T07:25:09.287Z,99.90
2023-02-27T07:27:38.593Z,99.90
2023-02-27T07:30:07.547Z,99.90
2023-02-27T07:32:36.018Z,99.90
2023-02-27T07:35:04.290Z,99.90
2023-02-27T07:37:32.135Z,99.90
2023-02-27T07:40:00.511Z,99.90
2023-02-27T07:42:28.432Z,99.90
2023-02-27T07:44:57.629Z,99.90
2023-02-27T07:47:25.562Z,99.90
2023-02-27T07:49:53.482Z,99.90
2023-02-27T07:52:21.352Z,99.90
2023-02-27T07:54:49.227Z,99.90
2023-02-27T07:57:17.156Z,99.90
2023-02-27T07:59:45.015Z,99.90
2023-02-27T08:02:14.362Z,99.90
2023-02-27T08:04:42.415Z,99.90
2023-02-27T08:07:10.282Z,99.90
2023-02-27T08:09:38.209Z,99.90
2023-02-27T08:12:06.424Z,99.90
2023-02-27T08:14:34.309Z,99.90
2023-02-27T08:17:02.269Z,99.90
2023-02-27T08:19:31.559Z,99.90
2023-02-27T08:21:59.402Z,99.90
2023-02-27T08:24:27.532Z,99.90
2023-02-27T08:26:55.381Z,99.90
2023-02-27T08:29:23.312Z,99.90
2023-02-27T08:31:51.491Z,99.90
2023-02-27T08:34:19.664Z,99.90
2023-02-27T08:36:48.883Z,99.90
2023-02-27T08:39:17.726Z,99.90
2023-02-27T08:41:46.249Z,99.90
2023-02-27T08:44:14.413Z,99.90
2023-02-27T08:46:42.540Z,99.90
2023-02-27T08:49:10.472Z,99.90
2023-02-27T08:51:38.382Z,99.90
2023-02-27T08:54:07.648Z,99.90
2023-02-27T08:56:35.622Z,99.90
2023-02-27T08:59:03.649Z,99.90
2023-02-27T09:01:34.547Z,99.90
2023-02-27T09:04:03.791Z,99.70
2023-02-27T09:06:32.800Z,99.60
2023-02-27T09:09:01.192Z,99.10
2023-02-27T09:11:30.995Z,98.30
2023-02-27T09:13:59.232Z,96.70
2023-02-27T09:16:27.522Z,95.80
2023-02-27T09:18:55.774Z,95.60
2023-02-27T09:21:24.725Z,94.80
2023-02-27T09:23:52.943Z,94.30
2023-02-27T09:26:24.577Z,93.30
2023-02-27T09:28:58.205Z,91.90
2023-02-27T09:31:26.535Z,90.50
2023-02-27T09:33:55.611Z,88.30
2023-02-27T09:36:23.604Z,83.10
2023-02-27T09:38:51.468Z,83.00
2023-02-27T09:41:36.849Z,80.60
2023-02-27T09:44:14.006Z,78.40
2023-02-27T09:46:41.927Z,76.70
2023-02-27T09:49:16.544Z,72.40
2023-02-27T09:51:44.514Z,70.60
2023-02-27T09:54:14.202Z,67.10
2023-02-27T09:56:50.501Z,63.50
2023-02-27T09:59:32.310Z,61.00
2023-02-27T10:02:11.460Z,57.40
2023-02-27T10:04:45.474Z,54.60
2023-02-27T10:07:18.542Z,52.00
2023-02-27T10:09:56.235Z,49.20
2023-02-27T10:12:38.348Z,47.00
2023-02-27T10:15:15.151Z,44.30
2023-02-27T10:17:50.134Z,42.20
2023-02-27T10:20:23.474Z,39.30
2023-02-27T10:22:52.936Z,37.50
2023-02-27T10:25:31.360Z,36.10
2023-02-27T10:28:06.972Z,35.20
2023-02-27T10:30:36.745Z,34.60
2023-02-27T10:33:28.136Z,34.10
2023-02-27T10:35:56.340Z,33.30
2023-02-27T10:38:33.207Z,33.20
2023-02-27T10:41:02.466Z,33.50
2023-02-27T10:43:30.694Z,33.90
2023-02-27T10:46:02.533Z,33.30
2023-02-27T10:48:32.797Z,33.70
2023-02-27T10:51:23.369Z,34.50
2023-02-27T10:53:52.741Z,34.40
2023-02-27T10:56:27.127Z,34.80
2023-02-27T10:59:06.520Z,35.80
2023-02-27T11:01:48.109Z,36.70
2023-02-27T11:04:24.186Z,37.30
2023-02-27T11:06:53.752Z,37.90
2023-02-27T11:09:23.592Z,37.60
2023-02-27T11:11:52.594Z,38.50
2023-02-27T11:14:30.168Z,39.70
2023-02-27T11:17:01.001Z,40.70
2023-02-27T11:19:34.897Z,39.80
2023-02-27T11:22:05.293Z,39.20
2023-02-27T11:24:33.593Z,37.90
2023-02-27T11:27:06.369Z,35.70
2023-02-27T11:29:35.735Z,34.80
2023-02-27T11:32:11.416Z,35.70
2023-02-27T11:34:41.769Z,36.80
2023-02-27T11:37:23.776Z,35.80
2023-02-27T11:39:54.638Z,35.40
2023-02-27T11:42:28.067Z,36.50
2023-02-27T11:44:59.267Z,37.60
2023-02-27T11:47:32.449Z,39.20
2023-02-27T11:50:34.524Z,40.80
2023-02-27T11:53:15.810Z,40.50
2023-02-27T11:55:45.365Z,38.00
2023-02-27T11:58:16.809Z,35.70
2023-02-27T12:00:50.054Z,33.80
2023-02-27T12:03:25.993Z,32.40
2023-02-27T12:05:58.091Z,31.20
2023-02-27T12:08:33.444Z,30.50
2023-02-27T12:11:13.941Z,30.90
2023-02-27T12:13:46.478Z,29.70
2023-02-27T12:16:23.224Z,29.30
2023-02-27T12:18:56.445Z,28.90
2023-02-27T12:21:27.565Z,29.20
2023-02-27T12:24:01.342Z,28.80
2023-02-27T12:26:33.858Z,28.80
2023-02-27T12:29:10.395Z,28.80
2023-02-27T12:31:45.893Z,27.50
2023-02-27T12:34:27.011Z,27.50
2023-02-27T12:36:57.180Z,27.60
2023-02-27T12:39:26.274Z,29.00
2023-02-27T12:42:31.177Z,29.50
2023-02-27T12:45:30.217Z,30.00
2023-02-27T12:48:10.637Z,29.70
2023-02-27T12:50:51.021Z,31.00
2023-02-27T12:53:32.938Z,32.30
2023-02-27T12:56:06.859Z,33.20
2023-02-27T12:58:44.491Z,33.20
2023-02-27T13:01:26.156Z,31.70
2023-02-27T13:04:00.558Z,32.40
2023-02-27T13:06:37.322Z,32.40
2023-02-27T13:09:15.874Z,31.20
2023-02-27T13:11:55.066Z,31.30
2023-02-27T13:14:35.417Z,32.10
2023-02-27T13:17:05.876Z,33.00
2023-02-27T13:19:38.522Z,34.90
2023-02-27T13:22:17.207Z,35.00
2023-02-27T13:24:50.508Z,34.80
2023-02-27T13:27:25.029Z,35.00
2023-02-27T13:30:05.350Z,34.50
2023-02-27T13:32:45.341Z,34.50
2023-02-27T13:35:24.399Z,34.40
2023-02-27T13:37:58.145Z,34.10
2023-02-27T13:40:35.730Z,35.00
2023-02-27T13:43:07.077Z,34.10
2023-02-27T13:46:02.350Z,34.50
2023-02-27T13:48:48.125Z,33.50
2023-02-27T13:51:59.344Z,34.00
2023-02-27T13:54:34.377Z,34.00
2023-02-27T13:57:21.354Z,34.20
2023-02-27T14:00:06.138Z,34.90
2023-02-27T14:02:46.604Z,35.60
2023-02-27T14:05:29.870Z,36.10
2023-02-27T14:08:08.513Z,35.90
2023-02-27T14:10:40.210Z,36.30
2023-02-27T14:13:58.298Z,36.10
2023-02-27T14:17:08.470Z,36.30
2023-02-27T14:19:56.765Z,37.70
2023-02-27T14:23:00.810Z,39.20
2023-02-27T14:25:34.334Z,40.50
2023-02-27T14:28:05.048Z,41.60
2023-02-27T14:30:40.767Z,41.60
2023-02-27T14:33:24.065Z,42.00
2023-02-27T14:36:01.461Z,42.60
2023-02-27T14:38:30.859Z,43.40
2023-02-27T14:41:11.065Z,44.60
2023-02-27T14:43:44.907Z,45.30
2023-02-27T14:46:21.424Z,46.10
2023-02-27T14:48:54.353Z,46.50
2023-02-27T14:51:23.299Z,47.10
2023-02-27T14:54:06.321Z,47.70
2023-02-27T14:56:35.844Z,47.80
2023-02-27T14:59:24.818Z,48.60
2023-02-27T15:01:53.996Z,48.80
2023-02-27T15:04:24.888Z,48.80
2023-02-27T15:06:54.247Z,49.30
2023-02-27T15:09:24.715Z,49.60
2023-02-27T15:12:03.398Z,50.50
2023-02-27T15:14:36.523Z,49.30
2023-02-27T15:17:05.230Z,49.60
2023-02-27T15:19:33.266Z,49.70
2023-02-27T15:22:05.184Z,50.10
2023-02-27T15:24:49.247Z,49.70
2023-02-27T15:27:21.118Z,50.10
2023-02-27T15:29:53.347Z,50.10
2023-02-27T15:32:28.626Z,50.20
2023-02-27T15:34:57.709Z,50.40
2023-02-27T15:37:28.412Z,50.50
2023-02-27T15:39:57.001Z,50.90
2023-02-27T15:42:28.264Z,51.80
2023-02-27T15:44:59.353Z,51.40
2023-02-27T15:47:29.150Z,51.60
2023-02-27T15:50:02.257Z,51.20
2023-02-27T15:52:39.642Z,50.90
2023-02-27T15:55:14.313Z,50.80
2023-02-27T15:57:56.582Z,51.10
2023-02-27T16:00:32.759Z,51.00
2023-02-27T16:03:01.171Z,51.10
2023-02-27T16:05:34.592Z,51.40
2023-02-27T16:08:03.483Z,52.20
2023-02-27T16:10:36.758Z,51.80
2023-02-27T16:13:37.660Z,51.70
2023-02-27T16:16:22.600Z,52.00
2023-02-27T16:18:52.765Z,52.60
2023-02-27T16:21:22.135Z,52.70
2023-02-27T16:23:50.904Z,52.90
2023-02-27T16:26:37.466Z,53.00
2023-02-27T16:29:07.964Z,53.10
2023-02-27T16:31:39.828Z,53.30
2023-02-27T16:34:16.721Z,52.60
2023-02-27T16:36:53.849Z,53.10
2023-02-27T16:39:21.838Z,53.10
2023-02-27T16:41:50.088Z,53.40
2023-02-27T16:44:18.383Z,53.50
2023-02-27T16:46:47.711Z,53.50
2023-02-27T16:49:20.858Z,53.30
2023-02-27T16:51:49.095Z,53.50
2023-02-27T16:54:17.535Z,53.50
2023-02-27T16:56:47.230Z,53.40
2023-02-27T16:59:27.935Z,53.70
2023-02-27T17:01:57.670Z,53.80
2023-02-27T17:04:26.362Z,53.80
2023-02-27T17:06:55.181Z,54.30
2023-02-27T17:09:23.455Z,54.40
2023-02-27T17:11:51.387Z,54.60
2023-02-27T17:14:19.294Z,54.80
2023-02-27T17:16:47.671Z,54.70
2023-02-27T17:19:17.128Z,55.20
2023-02-27T17:21:45.028Z,55.10
2023-02-27T17:24:12.994Z,55.10
2023-02-27T17:26:40.843Z,55.30
2023-02-27T17:29:09.589Z,55.20
2023-02-27T17:31:37.566Z,55.30
2023-02-27T17:34:08.646Z,55.50
2023-02-27T17:36:38.260Z,55.90
2023-02-27T17:39:07.060Z,55.90
2023-02-27T17:41:35.081Z,56.20
2023-02-27T17:44:03.006Z,55.90
2023-02-27T17:46:32.146Z,55.80
2023-02-27T17:49:01.089Z,55.90
2023-02-27T17:51:30.482Z,55.80
2023-02-27T17:54:02.585Z,56.30
2023-02-27T17:56:30.915Z,56.10
2023-02-27T17:58:59.166Z,56.60
2023-02-27T18:01:27.492Z,56.60
2023-02-27T18:03:55.820Z,57.00
2023-02-27T18:06:24.476Z,56.80
2023-02-27T18:08:52.473Z,57.10
2023-02-27T18:11:23.076Z,57.70
2023-02-27T18:13:51.496Z,57.40
2023-02-27T18:16:21.920Z,57.20
2023-02-27T18:18:50.358Z,57.20
2023-02-27T18:21:20.976Z,57.30
2023-02-27T18:23:49.459Z,57.40
2023-02-27T18:26:29.400Z,57.70
2023-02-27T18:29:01.064Z,57.60
2023-02-27T18:31:31.251Z,57.60
2023-02-27T18:33:59.134Z,57.70
2023-02-27T18:36:27.457Z,57.90
2023-02-27T18:38:55.762Z,57.90
2023-02-27T18:41:23.925Z,57.70
2023-02-27T18:43:51.956Z,57.90
2023-02-27T18:46:21.337Z,58.00
2023-02-27T18:48:49.259Z,58.00
2023-02-27T18:51:18.358Z,58.10
2023-02-27T18:53:48.381Z,58.20
2023-02-27T18:56:18.486Z,58.20
2023-02-27T18:58:46.649Z,58.20
2023-02-27T19:01:24.403Z,58.50
2023-02-27T19:03:53.224Z,58.60
2023-02-27T19:06:21.194Z,58.60
2023-02-27T19:08:49.257Z,59.40
2023-02-27T19:11:23.118Z,58.70
2023-02-27T19:13:51.043Z,58.80
2023-02-27T19:16:19.251Z,58.70
2023-02-27T19:18:48.559Z,58.60
2023-02-27T19:21:16.528Z,58.40
2023-02-27T19:23:44.427Z,58.50
2023-02-27T19:26:12.251Z,58.60
2023-02-27T19:28:40.163Z,58.60
2023-02-27T19:31:09.567Z,58.80
2023-02-27T19:33:37.833Z,59.00
2023-02-27T19:36:09.161Z,58.90
2023-02-27T19:38:37.176Z,58.80
2023-02-27T19:41:07.133Z,59.20
2023-02-27T19:43:36.148Z,59.20
2023-02-27T19:46:06.019Z,59.40
2023-02-27T19:48:33.935Z,59.50
2023-02-27T19:51:03.439Z,59.90
2023-02-27T19:53:33.846Z,60.00
2023-02-27T19:56:03.506Z,60.00
2023-02-27T19:58:33.467Z,60.00
2023-02-27T20:01:01.716Z,60.30
2023-02-27T20:03:30.044Z,60.60
2023-02-27T20:05:58.390Z,60.40
2023-02-27T20:08:26.256Z,60.80
2023-02-27T20:10:56.805Z,61.30
2023-02-27T20:13:24.919Z,61.10
2023-02-27T20:15:59.757Z,61.70
2023-02-27T20:18:29.840Z,61.40
2023-02-27T20:21:03.289Z,62.00
2023-02-27T20:23:31.639Z,61.20
2023-02-27T20:26:01.582Z,61.50
2023-02-27T20:28:29.501Z,61.10
2023-02-27T20:30:57.416Z,61.40
2023-02-27T20:33:25.253Z,62.10
2023-02-27T20:35:53.098Z,61.80
2023-02-27T20:38:22.609Z,61.70
2023-02-27T20:40:51.235Z,61.50
2023-02-27T20:43:20.528Z,61.60
2023-02-27T20:45:48.488Z,61.50
2023-02-27T20:48:16.440Z,61.70
2023-02-27T20:50:44.281Z,61.30
2023-02-27T20:53:12.162Z,61.30
2023-02-27T20:55:48.498Z,61.10
2023-02-27T20:58:16.551Z,61.60
2023-02-27T21:00:45.801Z,62.00
2023-02-27T21:03:13.729Z,61.60
2023-02-27T21:05:47.965Z,61.40
2023-02-27T21:08:15.903Z,61.70
2023-02-27T21:10:44.693Z,61.90
2023-02-27T21:13:12.611Z,61.60
2023-02-27T21:15:40.542Z,62.70
2023-02-27T21:18:09.793Z,61.90
2023-02-27T21:20:40.783Z,61.90
2023-02-27T21:23:08.744Z,62.00
2023-02-27T21:25:40.812Z,61.80
2023-02-27T21:28:08.766Z,62.10
2023-02-27T21:30:37.112Z,62.30
2023-02-27T21:33:05.386Z,62.20
2023-02-27T21:35:34.716Z,62.20
2023-02-27T21:38:02.678Z,62.30
2023-02-27T21:40:30.627Z,62.60
2023-02-27T21:42:58.533Z,62.80
2023-02-27T21:45:26.394Z,63.40
2023-02-27T21:47:54.296Z,62.90
2023-02-27T21:50:23.061Z,63.00
2023-02-27T21:52:52.312Z,63.00
2023-02-27T21:55:20.342Z,63.30
2023-02-27T21:57:48.277Z,63.60
2023-02-27T22:00:16.823Z,63.80
2023-02-27T22:02:44.790Z,63.80
2023-02-27T22:05:12.721Z,64.20
2023-02-27T22:07:40.648Z,64.00
2023-02-27T22:10:12.158Z,64.30
2023-02-27T22:12:40.054Z,64.80
2023-02-27T22:15:09.133Z,64.80
2023-02-27T22:17:37.078Z,65.20
2023-02-27T22:20:06.889Z,65.10
2023-02-27T22:22:34.868Z,66.10
2023-02-27T22:25:02.770Z,65.60
2023-02-27T22:27:32.715Z,65.60
2023-02-27T22:30:00.579Z,65.80
2023-02-27T22:32:28.624Z,66.00
2023-02-27T22:34:59.568Z,66.30
2023-02-27T22:37:28.264Z,66.30
2023-02-27T22:39:56.171Z,66.60
2023-02-27T22:42:24.025Z,66.60
2023-02-27T22:44:53.274Z,66.90
2023-02-27T22:47:21.144Z,66.90
2023-02-27T22:49:51.411Z,67.10
2023-02-27T22:52:19.809Z,67.30
2023-02-27T22:54:50.531Z,67.50
2023-02-27T22:57:18.445Z,67.50
2023-02-27T22:59:47.174Z,67.70
2023-02-27T23:02:17.236Z,68.00
2023-02-27T23:04:45.316Z,68.30
2023-02-27T23:07:13.179Z,68.30
2023-02-27T23:09:41.149Z,68.80
2023-02-27T23:12:11.709Z,68.70
2023-02-27T23:14:39.546Z,68.80
2023-02-27T23:17:07.691Z,68.90
2023-02-27T23:19:36.956Z,69.20
2023-02-27T23:22:05.204Z,69.80
2023-02-27T23:24:33.035Z,69.70
2023-02-27T23:27:02.718Z,69.60
2023-02-27T23:29:30.630Z,69.80
2023-02-27T23:31:58.665Z,70.10
2023-02-27T23:34:26.612Z,70.40
2023-02-27T23:36:55.799Z,70.60
2023-02-27T23:39:23.666Z,70.80
2023-02-27T23:41:51.516Z,70.90
2023-02-27T23:44:19.416Z,71.00
2023-02-27T23:46:47.378Z,71.30
2023-02-27T23:49:15.416Z,72.10
2023-02-27T23:51:43.394Z,71.30
2023-02-27T23:54:12.758Z,71.50
2023-02-27T23:56:40.724Z,71.40
2023-02-27T23:59:08.778Z,71.70
